sensor_id;sensor_type;location;lat;lon;timestamp;P1;durP1;ratioP1;P2;durP2;ratioP2
12880;SDS011;6508;53.786;9.996;2023-09-07T00:02:06;11.40;;;10.40;;
12880;SDS011;6508;53.786;9.996;2023-09-07T00:04:36;11.15;;;10.05;;
12880;SDS011;6508;53.786;9.996;2023-09-07T00:07:04;11.25;;;10.20;;
12880;SDS011;6508;53.786;9.996;2023-09-07T00:09:34;10.95;;;9.95;;
12880;SDS011;6508;53.786;9.996;2023-09-07T00:12:02;11.07;;;9.80;;
12880;SDS011;6508;53.786;9.996;2023-09-07T00:14:30;10.30;;;9.43;;
12880;SDS011;6508;53.786;9.996;2023-09-07T00:16:57;10.75;;;9.82;;
12880;SDS011;6508;53.786;9.996;2023-09-07T00:19:26;11.10;;;9.95;;
12880;SDS011;6508;53.786;9.996;2023-09-07T00:21:55;10.68;;;9.68;;
12880;SDS011;6508;53.786;9.996;2023-09-07T00:24:24;11.45;;;10.27;;
12880;SDS011;6508;53.786;9.996;2023-09-07T00:26:53;11.10;;;9.82;;
12880;SDS011;6508;53.786;9.996;2023-09-07T00:29:21;10.30;;;9.30;;
12880;SDS011;6508;53.786;9.996;2023-09-07T00:31:49;10.52;;;9.63;;
12880;SDS011;6508;53.786;9.996;2023-09-07T00:34:17;11.15;;;10.15;;
12880;SDS011;6508;53.786;9.996;2023-09-07T00:36:46;10.77;;;9.75;;
12880;SDS011;6508;53.786;9.996;2023-09-07T00:39:15;11.18;;;10.18;;
12880;SDS011;6508;53.786;9.996;2023-09-07T00:41:43;11.23;;;10.13;;
12880;SDS011;6508;53.786;9.996;2023-09-07T00:44:11;10.85;;;9.85;;
12880;SDS011;6508;53.786;9.996;2023-09-07T00:46:39;10.38;;;9.57;;
12880;SDS011;6508;53.786;9.996;2023-09-07T00:49:07;10.32;;;9.52;;
12880;SDS011;6508;53.786;9.996;2023-09-07T00:51:35;10.13;;;9.20;;
12880;SDS011;6508;53.786;9.996;2023-09-07T00:54:03;10.50;;;9.60;;
12880;SDS011;6508;53.786;9.996;2023-09-07T00:56:32;11.05;;;9.90;;
12880;SDS011;6508;53.786;9.996;2023-09-07T00:59:01;11.23;;;10.23;;
12880;SDS011;6508;53.786;9.996;2023-09-07T01:01:30;10.30;;;9.30;;
12880;SDS011;6508;53.786;9.996;2023-09-07T01:04:00;10.80;;;9.70;;
12880;SDS011;6508;53.786;9.996;2023-09-07T01:06:30;10.95;;;9.95;;
12880;SDS011;6508;53.786;9.996;2023-09-07T01:08:59;10.63;;;9.73;;
12880;SDS011;6508;53.786;9.996;2023-09-07T01:11:35;14.60;;;10.48;;
12880;SDS011;6508;53.786;9.996;2023-09-07T01:14:04;10.77;;;9.80;;
12880;SDS011;6508;53.786;9.996;2023-09-07T01:16:32;10.80;;;9.90;;
12880;SDS011;6508;53.786;9.996;2023-09-07T01:19:02;11.30;;;10.20;;
12880;SDS011;6508;53.786;9.996;2023-09-07T01:21:33;10.73;;;9.73;;
12880;SDS011;6508;53.786;9.996;2023-09-07T01:24:02;11.57;;;10.40;;
12880;SDS011;6508;53.786;9.996;2023-09-07T01:26:31;11.15;;;10.15;;
12880;SDS011;6508;53.786;9.996;2023-09-07T01:29:00;12.10;;;10.20;;
12880;SDS011;6508;53.786;9.996;2023-09-07T01:31:28;9.85;;;8.98;;
12880;SDS011;6508;53.786;9.996;2023-09-07T01:33:56;11.32;;;10.23;;
12880;SDS011;6508;53.786;9.996;2023-09-07T01:36:24;11.32;;;10.23;;
12880;SDS011;6508;53.786;9.996;2023-09-07T01:38:53;14.65;;;10.25;;
12880;SDS011;6508;53.786;9.996;2023-09-07T01:41:21;11.07;;;10.07;;
12880;SDS011;6508;53.786;9.996;2023-09-07T01:43:50;10.82;;;9.93;;
12880;SDS011;6508;53.786;9.996;2023-09-07T01:46:19;10.10;;;9.30;;
12880;SDS011;6508;53.786;9.996;2023-09-07T01:48:48;10.13;;;9.13;;
12880;SDS011;6508;53.786;9.996;2023-09-07T01:51:15;10.20;;;9.18;;
12880;SDS011;6508;53.786;9.996;2023-09-07T01:53:43;10.98;;;9.88;;
12880;SDS011;6508;53.786;9.996;2023-09-07T01:56:13;10.75;;;9.65;;
12880;SDS011;6508;53.786;9.996;2023-09-07T01:58:41;10.32;;;9.40;;
12880;SDS011;6508;53.786;9.996;2023-09-07T02:01:19;11.40;;;10.07;;
12880;SDS011;6508;53.786;9.996;2023-09-07T02:03:47;9.05;;;8.30;;
12880;SDS011;6508;53.786;9.996;2023-09-07T02:06:15;9.20;;;8.50;;
12880;SDS011;6508;53.786;9.996;2023-09-07T02:08:43;10.02;;;9.20;;
12880;SDS011;6508;53.786;9.996;2023-09-07T02:11:13;9.93;;;9.02;;
12880;SDS011;6508;53.786;9.996;2023-09-07T02:13:41;10.45;;;8.75;;
12880;SDS011;6508;53.786;9.996;2023-09-07T02:16:10;8.98;;;8.25;;
12880;SDS011;6508;53.786;9.996;2023-09-07T02:18:38;8.70;;;8.10;;
12880;SDS011;6508;53.786;9.996;2023-09-07T02:21:09;11.05;;;8.38;;
12880;SDS011;6508;53.786;9.996;2023-09-07T02:23:37;9.43;;;8.60;;
12880;SDS011;6508;53.786;9.996;2023-09-07T02:26:06;9.18;;;8.38;;
12880;SDS011;6508;53.786;9.996;2023-09-07T02:28:35;9.15;;;8.35;;
12880;SDS011;6508;53.786;9.996;2023-09-07T02:31:04;8.55;;;7.75;;
12880;SDS011;6508;53.786;9.996;2023-09-07T02:33:32;9.00;;;8.30;;
12880;SDS011;6508;53.786;9.996;2023-09-07T02:36:02;8.73;;;8.05;;
12880;SDS011;6508;53.786;9.996;2023-09-07T02:38:30;9.05;;;8.40;;
12880;SDS011;6508;53.786;9.996;2023-09-07T02:40:59;8.48;;;7.78;;
12880;SDS011;6508;53.786;9.996;2023-09-07T02:43:29;8.85;;;8.05;;
12880;SDS011;6508;53.786;9.996;2023-09-07T02:45:59;9.10;;;8.32;;
12880;SDS011;6508;53.786;9.996;2023-09-07T02:48:27;8.98;;;8.25;;
12880;SDS011;6508;53.786;9.996;2023-09-07T02:50:55;8.00;;;7.40;;
12880;SDS011;6508;53.786;9.996;2023-09-07T02:53:25;8.93;;;8.13;;
12880;SDS011;6508;53.786;9.996;2023-09-07T02:55:53;8.50;;;7.80;;
12880;SDS011;6508;53.786;9.996;2023-09-07T02:58:21;9.05;;;8.25;;
12880;SDS011;6508;53.786;9.996;2023-09-07T03:00:52;9.18;;;8.13;;
12880;SDS011;6508;53.786;9.996;2023-09-07T03:03:25;9.02;;;8.32;;
12880;SDS011;6508;53.786;9.996;2023-09-07T03:05:53;8.95;;;8.15;;
12880;SDS011;6508;53.786;9.996;2023-09-07T03:08:22;8.27;;;7.32;;
12880;SDS011;6508;53.786;9.996;2023-09-07T03:10:51;7.97;;;7.43;;
12880;SDS011;6508;53.786;9.996;2023-09-07T03:13:20;8.80;;;7.55;;
12880;SDS011;6508;53.786;9.996;2023-09-07T03:15:47;8.07;;;7.38;;
12880;SDS011;6508;53.786;9.996;2023-09-07T03:18:16;8.57;;;7.97;;
12880;SDS011;6508;53.786;9.996;2023-09-07T03:20:45;8.43;;;7.72;;
12880;SDS011;6508;53.786;9.996;2023-09-07T03:23:13;7.70;;;7.00;;
12880;SDS011;6508;53.786;9.996;2023-09-07T03:25:41;8.35;;;7.65;;
12880;SDS011;6508;53.786;9.996;2023-09-07T03:28:10;8.68;;;7.97;;
12880;SDS011;6508;53.786;9.996;2023-09-07T03:30:38;8.80;;;8.10;;
12880;SDS011;6508;53.786;9.996;2023-09-07T03:33:07;8.52;;;7.93;;
12880;SDS011;6508;53.786;9.996;2023-09-07T03:35:35;10.10;;;7.85;;
12880;SDS011;6508;53.786;9.996;2023-09-07T03:38:05;8.13;;;7.43;;
12880;SDS011;6508;53.786;9.996;2023-09-07T03:40:33;8.27;;;7.60;;
12880;SDS011;6508;53.786;9.996;2023-09-07T03:43:03;8.70;;;8.00;;
12880;SDS011;6508;53.786;9.996;2023-09-07T03:45:31;8.27;;;7.65;;
12880;SDS011;6508;53.786;9.996;2023-09-07T03:47:59;8.30;;;7.70;;
12880;SDS011;6508;53.786;9.996;2023-09-07T03:50:28;8.65;;;7.85;;
12880;SDS011;6508;53.786;9.996;2023-09-07T03:52:57;8.65;;;7.95;;
12880;SDS011;6508;53.786;9.996;2023-09-07T03:55:27;8.10;;;7.40;;
12880;SDS011;6508;53.786;9.996;2023-09-07T03:57:54;8.30;;;7.60;;
12880;SDS011;6508;53.786;9.996;2023-09-07T04:00:23;8.95;;;8.25;;
12880;SDS011;6508;53.786;9.996;2023-09-07T04:02:54;8.77;;;7.97;;
12880;SDS011;6508;53.786;9.996;2023-09-07T04:05:25;8.85;;;7.90;;
12880;SDS011;6508;53.786;9.996;2023-09-07T04:07:53;9.30;;;8.50;;
12880;SDS011;6508;53.786;9.996;2023-09-07T04:10:22;8.85;;;8.05;;
12880;SDS011;6508;53.786;9.996;2023-09-07T04:12:52;9.20;;;8.50;;
12880;SDS011;6508;53.786;9.996;2023-09-07T04:15:20;9.25;;;8.45;;
12880;SDS011;6508;53.786;9.996;2023-09-07T04:17:49;9.93;;;9.13;;
12880;SDS011;6508;53.786;9.996;2023-09-07T04:20:17;10.05;;;9.18;;
12880;SDS011;6508;53.786;9.996;2023-09-07T04:22:45;9.75;;;8.95;;
12880;SDS011;6508;53.786;9.996;2023-09-07T04:25:17;9.77;;;8.80;;
12880;SDS011;6508;53.786;9.996;2023-09-07T04:27:45;9.70;;;8.90;;
12880;SDS011;6508;53.786;9.996;2023-09-07T04:30:15;9.45;;;8.75;;
12880;SDS011;6508;53.786;9.996;2023-09-07T04:32:44;9.63;;;8.82;;
12880;SDS011;6508;53.786;9.996;2023-09-07T04:35:16;12.10;;;8.77;;
12880;SDS011;6508;53.786;9.996;2023-09-07T04:37:44;9.43;;;8.63;;
12880;SDS011;6508;53.786;9.996;2023-09-07T04:40:13;10.18;;;9.18;;
12880;SDS011;6508;53.786;9.996;2023-09-07T04:42:41;10.30;;;8.63;;
12880;SDS011;6508;53.786;9.996;2023-09-07T04:45:09;9.43;;;8.73;;
12880;SDS011;6508;53.786;9.996;2023-09-07T04:47:39;9.65;;;8.85;;
12880;SDS011;6508;53.786;9.996;2023-09-07T04:50:07;9.98;;;9.18;;
12880;SDS011;6508;53.786;9.996;2023-09-07T04:52:35;9.40;;;8.65;;
12880;SDS011;6508;53.786;9.996;2023-09-07T04:55:03;9.80;;;9.00;;
12880;SDS011;6508;53.786;9.996;2023-09-07T04:57:33;9.63;;;8.73;;
12880;SDS011;6508;53.786;9.996;2023-09-07T05:00:01;9.68;;;8.88;;
12880;SDS011;6508;53.786;9.996;2023-09-07T05:02:37;9.32;;;8.48;;
12880;SDS011;6508;53.786;9.996;2023-09-07T05:05:11;9.05;;;8.38;;
12880;SDS011;6508;53.786;9.996;2023-09-07T05:07:41;9.45;;;8.65;;
12880;SDS011;6508;53.786;9.996;2023-09-07T05:10:10;9.18;;;8.48;;
12880;SDS011;6508;53.786;9.996;2023-09-07T05:12:41;9.60;;;8.75;;
12880;SDS011;6508;53.786;9.996;2023-09-07T05:15:13;9.40;;;8.52;;
12880;SDS011;6508;53.786;9.996;2023-09-07T05:17:42;9.20;;;8.40;;
12880;SDS011;6508;53.786;9.996;2023-09-07T05:20:13;8.70;;;8.10;;
12880;SDS011;6508;53.786;9.996;2023-09-07T05:22:47;9.07;;;8.18;;
12880;SDS011;6508;53.786;9.996;2023-09-07T05:25:17;9.32;;;8.50;;
12880;SDS011;6508;53.786;9.996;2023-09-07T05:27:46;9.05;;;8.15;;
12880;SDS011;6508;53.786;9.996;2023-09-07T05:30:15;8.52;;;7.75;;
12880;SDS011;6508;53.786;9.996;2023-09-07T05:32:45;9.50;;;8.70;;
12880;SDS011;6508;53.786;9.996;2023-09-07T05:35:15;8.75;;;8.15;;
12880;SDS011;6508;53.786;9.996;2023-09-07T05:37:44;8.50;;;7.78;;
12880;SDS011;6508;53.786;9.996;2023-09-07T05:40:14;8.80;;;8.20;;
12880;SDS011;6508;53.786;9.996;2023-09-07T05:42:43;9.20;;;8.50;;
12880;SDS011;6508;53.786;9.996;2023-09-07T05:45:14;8.32;;;7.70;;
12880;SDS011;6508;53.786;9.996;2023-09-07T05:47:46;8.70;;;7.90;;
12880;SDS011;6508;53.786;9.996;2023-09-07T05:50:16;8.70;;;7.90;;
12880;SDS011;6508;53.786;9.996;2023-09-07T05:52:44;8.13;;;7.43;;
12880;SDS011;6508;53.786;9.996;2023-09-07T05:55:13;9.23;;;8.43;;
12880;SDS011;6508;53.786;9.996;2023-09-07T05:57:42;9.07;;;8.13;;
12880;SDS011;6508;53.786;9.996;2023-09-07T06:00:11;8.25;;;7.65;;
12880;SDS011;6508;53.786;9.996;2023-09-07T06:02:40;7.88;;;7.25;;
12880;SDS011;6508;53.786;9.996;2023-09-07T06:05:10;8.20;;;7.60;;
12880;SDS011;6508;53.786;9.996;2023-09-07T06:07:41;7.75;;;7.05;;
12880;SDS011;6508;53.786;9.996;2023-09-07T06:10:10;7.68;;;7.10;;
12880;SDS011;6508;53.786;9.996;2023-09-07T06:12:39;6.95;;;6.45;;
12880;SDS011;6508;53.786;9.996;2023-09-07T06:15:08;7.80;;;7.18;;
12880;SDS011;6508;53.786;9.996;2023-09-07T06:17:38;7.07;;;6.50;;
12880;SDS011;6508;53.786;9.996;2023-09-07T06:20:07;6.32;;;5.93;;
12880;SDS011;6508;53.786;9.996;2023-09-07T06:22:35;7.15;;;6.65;;
12880;SDS011;6508;53.786;9.996;2023-09-07T06:25:05;6.55;;;6.00;;
12880;SDS011;6508;53.786;9.996;2023-09-07T06:27:33;7.00;;;6.50;;
12880;SDS011;6508;53.786;9.996;2023-09-07T06:30:01;6.90;;;6.25;;
12880;SDS011;6508;53.786;9.996;2023-09-07T06:32:30;5.65;;;5.28;;
12880;SDS011;6508;53.786;9.996;2023-09-07T06:34:59;7.07;;;6.38;;
12880;SDS011;6508;53.786;9.996;2023-09-07T06:37:27;6.47;;;6.00;;
12880;SDS011;6508;53.786;9.996;2023-09-07T06:39:55;6.65;;;6.13;;
12880;SDS011;6508;53.786;9.996;2023-09-07T06:42:25;6.80;;;6.20;;
12880;SDS011;6508;53.786;9.996;2023-09-07T06:45:01;5.88;;;5.47;;
12880;SDS011;6508;53.786;9.996;2023-09-07T06:47:29;6.03;;;5.63;;
12880;SDS011;6508;53.786;9.996;2023-09-07T06:50:00;6.88;;;6.38;;
12880;SDS011;6508;53.786;9.996;2023-09-07T06:52:29;6.18;;;5.78;;
12880;SDS011;6508;53.786;9.996;2023-09-07T06:54:58;6.63;;;6.03;;
12880;SDS011;6508;53.786;9.996;2023-09-07T06:57:27;6.65;;;6.25;;
12880;SDS011;6508;53.786;9.996;2023-09-07T06:59:56;6.30;;;5.80;;
12880;SDS011;6508;53.786;9.996;2023-09-07T07:02:24;6.53;;;6.13;;
12880;SDS011;6508;53.786;9.996;2023-09-07T07:04:53;6.20;;;5.70;;
12880;SDS011;6508;53.786;9.996;2023-09-07T07:07:21;6.35;;;5.85;;
12880;SDS011;6508;53.786;9.996;2023-09-07T07:09:49;6.70;;;6.28;;
12880;SDS011;6508;53.786;9.996;2023-09-07T07:12:17;5.80;;;5.50;;
12880;SDS011;6508;53.786;9.996;2023-09-07T07:14:49;6.57;;;5.88;;
12880;SDS011;6508;53.786;9.996;2023-09-07T07:17:19;6.35;;;5.95;;
12880;SDS011;6508;53.786;9.996;2023-09-07T07:19:48;6.72;;;6.18;;
12880;SDS011;6508;53.786;9.996;2023-09-07T07:22:17;6.20;;;5.70;;
12880;SDS011;6508;53.786;9.996;2023-09-07T07:24:48;5.90;;;5.40;;
12880;SDS011;6508;53.786;9.996;2023-09-07T07:27:19;6.15;;;5.68;;
12880;SDS011;6508;53.786;9.996;2023-09-07T07:29:50;6.35;;;5.95;;
12880;SDS011;6508;53.786;9.996;2023-09-07T07:32:18;6.60;;;6.18;;
12880;SDS011;6508;53.786;9.996;2023-09-07T07:34:48;6.38;;;5.97;;
12880;SDS011;6508;53.786;9.996;2023-09-07T07:37:17;6.68;;;6.07;;
12880;SDS011;6508;53.786;9.996;2023-09-07T07:39:46;5.80;;;5.32;;
12880;SDS011;6508;53.786;9.996;2023-09-07T07:42:13;6.28;;;5.90;;
12880;SDS011;6508;53.786;9.996;2023-09-07T07:44:42;6.45;;;6.03;;
12880;SDS011;6508;53.786;9.996;2023-09-07T07:47:12;6.38;;;5.88;;
12880;SDS011;6508;53.786;9.996;2023-09-07T07:49:40;6.03;;;5.50;;
12880;SDS011;6508;53.786;9.996;2023-09-07T07:52:08;5.88;;;5.47;;
12880;SDS011;6508;53.786;9.996;2023-09-07T07:54:36;6.00;;;5.60;;
12880;SDS011;6508;53.786;9.996;2023-09-07T07:57:05;5.65;;;5.35;;
12880;SDS011;6508;53.786;9.996;2023-09-07T07:59:34;6.00;;;5.40;;
12880;SDS011;6508;53.786;9.996;2023-09-07T08:02:02;5.95;;;5.65;;
12880;SDS011;6508;53.786;9.996;2023-09-07T08:04:32;5.35;;;5.03;;
12880;SDS011;6508;53.786;9.996;2023-09-07T08:07:02;5.50;;;5.20;;
12880;SDS011;6508;53.786;9.996;2023-09-07T08:09:32;6.05;;;5.75;;
12880;SDS011;6508;53.786;9.996;2023-09-07T08:12:00;5.93;;;5.55;;
12880;SDS011;6508;53.786;9.996;2023-09-07T08:14:31;5.53;;;5.10;;
12880;SDS011;6508;53.786;9.996;2023-09-07T08:17:01;5.47;;;5.07;;
12880;SDS011;6508;53.786;9.996;2023-09-07T08:19:30;6.60;;;6.00;;
12880;SDS011;6508;53.786;9.996;2023-09-07T08:22:02;5.65;;;5.28;;
12880;SDS011;6508;53.786;9.996;2023-09-07T08:24:31;5.20;;;4.90;;
12880;SDS011;6508;53.786;9.996;2023-09-07T08:27:00;5.13;;;4.82;;
12880;SDS011;6508;53.786;9.996;2023-09-07T08:29:30;6.07;;;5.60;;
12880;SDS011;6508;53.786;9.996;2023-09-07T08:31:59;6.00;;;5.60;;
12880;SDS011;6508;53.786;9.996;2023-09-07T08:34:30;5.70;;;5.30;;
12880;SDS011;6508;53.786;9.996;2023-09-07T08:36:59;5.32;;;4.97;;
12880;SDS011;6508;53.786;9.996;2023-09-07T08:39:28;5.93;;;5.53;;
12880;SDS011;6508;53.786;9.996;2023-09-07T08:41:58;5.45;;;4.95;;
12880;SDS011;6508;53.786;9.996;2023-09-07T08:44:28;6.18;;;5.65;;
12880;SDS011;6508;53.786;9.996;2023-09-07T08:46:56;5.45;;;5.10;;
12880;SDS011;6508;53.786;9.996;2023-09-07T08:49:25;5.40;;;5.10;;
12880;SDS011;6508;53.786;9.996;2023-09-07T08:51:53;5.20;;;4.90;;
12880;SDS011;6508;53.786;9.996;2023-09-07T08:54:25;5.68;;;5.18;;
12880;SDS011;6508;53.786;9.996;2023-09-07T08:56:55;5.28;;;4.97;;
12880;SDS011;6508;53.786;9.996;2023-09-07T08:59:23;5.07;;;4.78;;
12880;SDS011;6508;53.786;9.996;2023-09-07T09:01:55;5.82;;;5.30;;
12880;SDS011;6508;53.786;9.996;2023-09-07T09:04:24;5.47;;;5.07;;
12880;SDS011;6508;53.786;9.996;2023-09-07T09:06:52;5.50;;;5.20;;
12880;SDS011;6508;53.786;9.996;2023-09-07T09:09:23;5.30;;;5.00;;
12880;SDS011;6508;53.786;9.996;2023-09-07T09:11:52;5.75;;;5.45;;
12880;SDS011;6508;53.786;9.996;2023-09-07T09:14:22;5.28;;;4.97;;
12880;SDS011;6508;53.786;9.996;2023-09-07T09:16:50;5.50;;;5.20;;
12880;SDS011;6508;53.786;9.996;2023-09-07T09:19:18;5.70;;;5.30;;
12880;SDS011;6508;53.786;9.996;2023-09-07T09:21:46;5.47;;;5.18;;
12880;SDS011;6508;53.786;9.996;2023-09-07T09:24:16;5.43;;;4.95;;
12880;SDS011;6508;53.786;9.996;2023-09-07T09:26:45;5.40;;;5.00;;
12880;SDS011;6508;53.786;9.996;2023-09-07T09:29:13;5.45;;;5.05;;
12880;SDS011;6508;53.786;9.996;2023-09-07T09:31:43;5.68;;;5.28;;
12880;SDS011;6508;53.786;9.996;2023-09-07T09:34:12;5.50;;;5.10;;
12880;SDS011;6508;53.786;9.996;2023-09-07T09:36:41;5.57;;;5.20;;
12880;SDS011;6508;53.786;9.996;2023-09-07T09:39:10;5.72;;;5.20;;
12880;SDS011;6508;53.786;9.996;2023-09-07T09:41:40;5.38;;;5.07;;
12880;SDS011;6508;53.786;9.996;2023-09-07T09:44:08;5.35;;;5.05;;
12880;SDS011;6508;53.786;9.996;2023-09-07T09:46:36;5.35;;;5.03;;
12880;SDS011;6508;53.786;9.996;2023-09-07T09:49:07;5.03;;;4.60;;
12880;SDS011;6508;53.786;9.996;2023-09-07T09:51:38;4.88;;;4.57;;
12880;SDS011;6508;53.786;9.996;2023-09-07T09:54:10;4.68;;;4.47;;
12880;SDS011;6508;53.786;9.996;2023-09-07T09:56:38;5.20;;;4.80;;
12880;SDS011;6508;53.786;9.996;2023-09-07T09:59:06;5.28;;;4.95;;
12880;SDS011;6508;53.786;9.996;2023-09-07T10:01:39;4.85;;;4.40;;
12880;SDS011;6508;53.786;9.996;2023-09-07T10:04:11;4.60;;;4.40;;
12880;SDS011;6508;53.786;9.996;2023-09-07T10:06:49;4.88;;;4.57;;
12880;SDS011;6508;53.786;9.996;2023-09-07T10:09:17;4.82;;;4.63;;
12880;SDS011;6508;53.786;9.996;2023-09-07T10:11:50;4.63;;;4.40;;
12880;SDS011;6508;53.786;9.996;2023-09-07T10:14:18;4.65;;;4.38;;
12880;SDS011;6508;53.786;9.996;2023-09-07T10:16:47;4.55;;;4.35;;
12880;SDS011;6508;53.786;9.996;2023-09-07T10:19:18;5.18;;;4.78;;
12880;SDS011;6508;53.786;9.996;2023-09-07T10:21:45;4.68;;;4.38;;
12880;SDS011;6508;53.786;9.996;2023-09-07T10:24:23;4.68;;;4.38;;
12880;SDS011;6508;53.786;9.996;2023-09-07T10:27:02;4.40;;;4.10;;
12880;SDS011;6508;53.786;9.996;2023-09-07T10:29:40;4.07;;;3.88;;
12880;SDS011;6508;53.786;9.996;2023-09-07T10:32:08;4.57;;;4.28;;
12880;SDS011;6508;53.786;9.996;2023-09-07T10:34:38;4.40;;;4.18;;
12880;SDS011;6508;53.786;9.996;2023-09-07T10:37:10;4.55;;;4.35;;
12880;SDS011;6508;53.786;9.996;2023-09-07T10:39:40;4.80;;;4.50;;
12880;SDS011;6508;53.786;9.996;2023-09-07T10:42:19;4.75;;;4.13;;
12880;SDS011;6508;53.786;9.996;2023-09-07T10:44:48;4.25;;;4.05;;
12880;SDS011;6508;53.786;9.996;2023-09-07T10:47:15;4.20;;;3.97;;
12880;SDS011;6508;53.786;9.996;2023-09-07T10:49:45;4.53;;;4.15;;
12880;SDS011;6508;53.786;9.996;2023-09-07T10:52:13;4.15;;;3.95;;
12880;SDS011;6508;53.786;9.996;2023-09-07T10:54:41;4.65;;;4.35;;
12880;SDS011;6508;53.786;9.996;2023-09-07T10:57:10;4.50;;;4.20;;
12880;SDS011;6508;53.786;9.996;2023-09-07T10:59:44;4.32;;;4.03;;
12880;SDS011;6508;53.786;9.996;2023-09-07T11:02:13;4.45;;;4.15;;
12880;SDS011;6508;53.786;9.996;2023-09-07T11:04:42;4.53;;;3.95;;
12880;SDS011;6508;53.786;9.996;2023-09-07T11:07:12;4.45;;;4.25;;
12880;SDS011;6508;53.786;9.996;2023-09-07T11:09:42;4.50;;;4.30;;
12880;SDS011;6508;53.786;9.996;2023-09-07T11:12:13;4.65;;;4.45;;
12880;SDS011;6508;53.786;9.996;2023-09-07T11:14:42;4.28;;;4.05;;
12880;SDS011;6508;53.786;9.996;2023-09-07T11:17:10;4.40;;;4.20;;
12880;SDS011;6508;53.786;9.996;2023-09-07T11:19:38;4.75;;;4.43;;
12880;SDS011;6508;53.786;9.996;2023-09-07T11:22:09;4.45;;;4.25;;
12880;SDS011;6508;53.786;9.996;2023-09-07T11:24:38;4.47;;;4.28;;
12880;SDS011;6508;53.786;9.996;2023-09-07T11:27:08;4.50;;;4.30;;
12880;SDS011;6508;53.786;9.996;2023-09-07T11:29:37;4.35;;;4.03;;
12880;SDS011;6508;53.786;9.996;2023-09-07T11:32:06;4.00;;;3.70;;
12880;SDS011;6508;53.786;9.996;2023-09-07T11:34:35;4.32;;;3.92;;
12880;SDS011;6508;53.786;9.996;2023-09-07T11:37:14;4.03;;;3.83;;
12880;SDS011;6508;53.786;9.996;2023-09-07T11:39:43;4.40;;;4.10;;
12880;SDS011;6508;53.786;9.996;2023-09-07T11:42:11;4.40;;;3.97;;
12880;SDS011;6508;53.786;9.996;2023-09-07T11:44:40;3.70;;;3.60;;
12880;SDS011;6508;53.786;9.996;2023-09-07T11:47:08;4.40;;;4.13;;
12880;SDS011;6508;53.786;9.996;2023-09-07T11:49:36;4.43;;;4.03;;
12880;SDS011;6508;53.786;9.996;2023-09-07T11:52:04;4.35;;;4.00;;
12880;SDS011;6508;53.786;9.996;2023-09-07T11:54:33;4.63;;;4.32;;
12880;SDS011;6508;53.786;9.996;2023-09-07T11:57:03;4.57;;;4.18;;
12880;SDS011;6508;53.786;9.996;2023-09-07T11:59:31;5.20;;;4.55;;
12880;SDS011;6508;53.786;9.996;2023-09-07T12:02:17;4.22;;;3.97;;
12880;SDS011;6508;53.786;9.996;2023-09-07T12:04:48;3.78;;;3.58;;
12880;SDS011;6508;53.786;9.996;2023-09-07T12:07:16;4.28;;;3.97;;
12880;SDS011;6508;53.786;9.996;2023-09-07T12:09:44;4.70;;;4.30;;
12880;SDS011;6508;53.786;9.996;2023-09-07T12:12:14;4.38;;;4.18;;
12880;SDS011;6508;53.786;9.996;2023-09-07T12:14:42;4.32;;;3.92;;
12880;SDS011;6508;53.786;9.996;2023-09-07T12:17:10;4.15;;;3.95;;
12880;SDS011;6508;53.786;9.996;2023-09-07T12:19:38;4.50;;;4.10;;
12880;SDS011;6508;53.786;9.996;2023-09-07T12:22:08;4.07;;;3.88;;
12880;SDS011;6508;53.786;9.996;2023-09-07T12:24:36;4.00;;;3.80;;
12880;SDS011;6508;53.786;9.996;2023-09-07T12:27:04;4.20;;;3.97;;
12880;SDS011;6508;53.786;9.996;2023-09-07T12:29:35;5.53;;;3.90;;
12880;SDS011;6508;53.786;9.996;2023-09-07T12:32:03;4.03;;;3.90;;
12880;SDS011;6508;53.786;9.996;2023-09-07T12:34:31;3.92;;;3.65;;
12880;SDS011;6508;53.786;9.996;2023-09-07T12:36:59;4.38;;;3.97;;
12880;SDS011;6508;53.786;9.996;2023-09-07T12:39:27;4.30;;;4.00;;
12880;SDS011;6508;53.786;9.996;2023-09-07T12:41:57;4.22;;;4.03;;
12880;SDS011;6508;53.786;9.996;2023-09-07T12:44:25;4.30;;;4.10;;
12880;SDS011;6508;53.786;9.996;2023-09-07T12:46:55;4.50;;;4.20;;
12880;SDS011;6508;53.786;9.996;2023-09-07T12:49:23;4.78;;;4.38;;
12880;SDS011;6508;53.786;9.996;2023-09-07T12:51:51;4.40;;;4.00;;
12880;SDS011;6508;53.786;9.996;2023-09-07T12:54:20;4.57;;;4.38;;
12880;SDS011;6508;53.786;9.996;2023-09-07T12:56:48;4.40;;;4.20;;
12880;SDS011;6508;53.786;9.996;2023-09-07T12:59:16;4.43;;;4.22;;
12880;SDS011;6508;53.786;9.996;2023-09-07T13:01:44;4.50;;;4.30;;
12880;SDS011;6508;53.786;9.996;2023-09-07T13:04:15;4.90;;;4.60;;
12880;SDS011;6508;53.786;9.996;2023-09-07T13:06:43;4.50;;;4.30;;
12880;SDS011;6508;53.786;9.996;2023-09-07T13:09:11;4.60;;;4.35;;
12880;SDS011;6508;53.786;9.996;2023-09-07T13:11:39;4.43;;;4.20;;
12880;SDS011;6508;53.786;9.996;2023-09-07T13:14:07;4.80;;;4.50;;
12880;SDS011;6508;53.786;9.996;2023-09-07T13:16:38;4.65;;;4.45;;
12880;SDS011;6508;53.786;9.996;2023-09-07T13:19:06;8.18;;;4.70;;
12880;SDS011;6508;53.786;9.996;2023-09-07T13:21:35;4.68;;;4.43;;
12880;SDS011;6508;53.786;9.996;2023-09-07T13:24:03;4.53;;;4.32;;
12880;SDS011;6508;53.786;9.996;2023-09-07T13:26:36;4.90;;;4.68;;
12880;SDS011;6508;53.786;9.996;2023-09-07T13:29:05;6.70;;;4.53;;
12880;SDS011;6508;53.786;9.996;2023-09-07T13:31:33;4.60;;;4.32;;
12880;SDS011;6508;53.786;9.996;2023-09-07T13:34:02;4.45;;;4.15;;
12880;SDS011;6508;53.786;9.996;2023-09-07T13:36:31;4.85;;;4.60;;
12880;SDS011;6508;53.786;9.996;2023-09-07T13:39:01;4.80;;;4.40;;
12880;SDS011;6508;53.786;9.996;2023-09-07T13:41:38;4.60;;;4.30;;
12880;SDS011;6508;53.786;9.996;2023-09-07T13:44:07;4.28;;;4.07;;
12880;SDS011;6508;53.786;9.996;2023-09-07T13:46:36;5.00;;;4.65;;
12880;SDS011;6508;53.786;9.996;2023-09-07T13:49:04;4.70;;;4.50;;
12880;SDS011;6508;53.786;9.996;2023-09-07T13:51:32;4.57;;;4.38;;
12880;SDS011;6508;53.786;9.996;2023-09-07T13:54:07;4.82;;;4.53;;
12880;SDS011;6508;53.786;9.996;2023-09-07T13:56:36;5.00;;;4.70;;
12880;SDS011;6508;53.786;9.996;2023-09-07T13:59:04;4.53;;;4.22;;
12880;SDS011;6508;53.786;9.996;2023-09-07T14:01:33;4.82;;;4.53;;
12880;SDS011;6508;53.786;9.996;2023-09-07T14:04:02;4.50;;;4.25;;
12880;SDS011;6508;53.786;9.996;2023-09-07T14:06:29;4.65;;;4.35;;
12880;SDS011;6508;53.786;9.996;2023-09-07T14:08:57;4.47;;;4.18;;
12880;SDS011;6508;53.786;9.996;2023-09-07T14:11:27;4.85;;;4.60;;
12880;SDS011;6508;53.786;9.996;2023-09-07T14:13:55;4.60;;;4.30;;
12880;SDS011;6508;53.786;9.996;2023-09-07T14:16:23;4.55;;;4.30;;
12880;SDS011;6508;53.786;9.996;2023-09-07T14:18:52;4.35;;;4.15;;
12880;SDS011;6508;53.786;9.996;2023-09-07T14:21:21;4.47;;;4.28;;
12880;SDS011;6508;53.786;9.996;2023-09-07T14:23:49;5.13;;;4.72;;
12880;SDS011;6508;53.786;9.996;2023-09-07T14:26:18;4.88;;;4.60;;
12880;SDS011;6508;53.786;9.996;2023-09-07T14:28:47;4.70;;;4.40;;
12880;SDS011;6508;53.786;9.996;2023-09-07T14:31:17;4.88;;;4.47;;
12880;SDS011;6508;53.786;9.996;2023-09-07T14:33:46;4.60;;;4.20;;
12880;SDS011;6508;53.786;9.996;2023-09-07T14:36:15;4.53;;;4.07;;
12880;SDS011;6508;53.786;9.996;2023-09-07T14:38:43;4.90;;;4.60;;
12880;SDS011;6508;53.786;9.996;2023-09-07T14:41:12;4.38;;;4.13;;
12880;SDS011;6508;53.786;9.996;2023-09-07T14:43:47;4.13;;;3.83;;
12880;SDS011;6508;53.786;9.996;2023-09-07T14:46:15;4.13;;;3.92;;
12880;SDS011;6508;53.786;9.996;2023-09-07T14:48:44;4.68;;;4.38;;
12880;SDS011;6508;53.786;9.996;2023-09-07T14:51:16;4.53;;;4.22;;
12880;SDS011;6508;53.786;9.996;2023-09-07T14:53:45;4.55;;;4.07;;
12880;SDS011;6508;53.786;9.996;2023-09-07T14:56:12;4.35;;;4.00;;
12880;SDS011;6508;53.786;9.996;2023-09-07T14:58:40;4.63;;;4.18;;
12880;SDS011;6508;53.786;9.996;2023-09-07T15:01:09;4.13;;;3.83;;
12880;SDS011;6508;53.786;9.996;2023-09-07T15:03:37;4.65;;;4.35;;
12880;SDS011;6508;53.786;9.996;2023-09-07T15:06:07;5.28;;;4.45;;
12880;SDS011;6508;53.786;9.996;2023-09-07T15:08:39;5.10;;;4.80;;
12880;SDS011;6508;53.786;9.996;2023-09-07T15:11:07;4.20;;;4.00;;